Terminal Aerodrome Forecast
Issued by NWS Northern Indiana

Home | Current Version | Previous Version | Text Only | Print | Product List | Glossary Off
Versions: 1 2 3 4 5 6 7 8 9 10 11 12 13

000
FTUS43 KIWX 270526
TAFFWA
TAF
KFWA 270526Z 2706/2806 10004KT P6SM FEW040 BKN150
      TEMPO 2710/2713 4SM BR
     FM271300 09009KT P6SM FEW050 SCT150
     FM280000 09004KT P6SM FEW250=

USA.gov is the U.S. government's official web portal to all federal, state and local government web resources and services.